Fairview, Pennsylvania
Current Conditions -  °F | °C
As of 8:51 PM on Friday 28 Nov 2014 (Local Time) from KERI Reporting Station
Overcast Overcast  
Wind Chill: 16°   Ceiling: 11000
Heat Index: 25°   Visibility: 10mi
Dew Point: 13°   Wind: 8mph
Humidity: 60%   Direction: 170°S
Pressure: 30.19"   Gusts: NA
Location:  42.03°N, 80.25°W
Report Text: KERI 290151Z 17007KT 10SM FEW036 FEW090 OVC110 M04/M11 A3019 RMK AO2 SLP235 T10391106
Loading
Personal Weather Stations






























Interactive Weather Map New forecast layout! Learn more

10-Day Weather Forecast

Advertisements
Track Severe Weather on mobile